Time,TemperatureF,DewpointF,PressureIn,WindDirection,WindDirectionDegrees,WindSpeedMPH,WindSpeedGustMPH,Humidity,HourlyPrecipIn,Conditions,Clouds,dailyrainin,SoftwareType,DateUTC
2013-06-16 00:00:00,73.0,24.3,29.88,North,356,2.0,9.6,16,0.00,,,-99.99,FreeWX-Wi 1.02,2013-06-16 07:00:00,
2013-06-16 00:05:00,72.5,23.7,29.88,North,358,2.0,3.6,16,0.00,,,-99.99,FreeWX-Wi 1.02,2013-06-16 07:05:00,
2013-06-16 00:10:00,71.6,23.0,29.88,North,0,2.0,2.7,16,0.00,,,-99.99,FreeWX-Wi 1.02,2013-06-16 07:10:00,
2013-06-16 00:15:00,71.1,24.1,29.88,North,5,2.0,0.0,17,0.00,,,-99.99,FreeWX-Wi 1.02,2013-06-16 07:15:00,
2013-06-16 00:20:00,70.3,23.5,29.88,NNE,12,2.0,3.1,17,0.00,,,-99.99,FreeWX-Wi 1.02,2013-06-16 07:20:00,
2013-06-16 00:25:00,69.8,23.0,29.88,North,8,1.0,4.0,17,0.00,,,-99.99,FreeWX-Wi 1.02,2013-06-16 07:25:00,
2013-06-16 00:30:00,69.4,22.8,29.88,North,-999,0.0,3.1,17,0.00,,,-99.99,FreeWX-Wi 1.02,2013-06-16 07:30:00,
2013-06-16 00:35:00,69.3,22.6,29.88,North,-999,0.0,3.6,17,0.00,,,-99.99,FreeWX-Wi 1.02,2013-06-16 07:35:00,
2013-06-16 00:40:00,69.8,23.0,29.88,NNE,21,1.0,4.9,17,0.00,,,-99.99,FreeWX-Wi 1.02,2013-06-16 07:40:00,
2013-06-16 00:45:00,72.0,23.4,29.88,NNE,17,1.0,6.3,16,0.00,,,-99.99,FreeWX-Wi 1.02,2013-06-16 07:45:00,
2013-06-16 00:50:00,72.1,23.5,29.88,North,6,2.0,10.1,16,0.00,,,-99.99,FreeWX-Wi 1.02,2013-06-16 07:50:00,
2013-06-16 00:55:00,71.8,23.2,29.88,NNW,334,3.0,8.3,16,0.00,,,-99.99,FreeWX-Wi 1.02,2013-06-16 07:55:00,
2013-06-16 01:00:00,71.2,24.3,29.88,West,274,4.0,7.6,17,0.00,,,-99.99,FreeWX-Wi 1.02,2013-06-16 08:00:00,
2013-06-16 01:05:00,70.3,23.5,29.88,WSW,251,4.0,4.0,17,0.00,,,-99.99,FreeWX-Wi 1.02,2013-06-16 08:05:00,
2013-06-16 01:10:00,69.6,22.8,29.88,WSW,250,3.0,0.0,17,0.00,,,-99.99,FreeWX-Wi 1.02,2013-06-16 08:10:00,
2013-06-16 01:15:00,68.7,22.1,29.88,WSW,247,2.0,3.1,17,0.00,,,-99.99,FreeWX-Wi 1.02,2013-06-16 08:15:00,
2013-06-16 01:20:00,68.2,21.7,29.85,WSW,248,1.0,3.1,17,0.00,,,-99.99,FreeWX-Wi 1.02,2013-06-16 08:20:00,
2013-06-16 01:25:00,67.8,25.3,29.85,North,-999,0.0,0.0,20,0.00,,,-99.99,FreeWX-Wi 1.02,2013-06-16 08:25:00,
2013-06-16 01:30:00,67.5,25.0,29.85,North,-999,0.0,2.7,20,0.00,,,-99.99,FreeWX-Wi 1.02,2013-06-16 08:30:00,
2013-06-16 01:35:00,67.1,24.6,29.85,North,-999,0.0,3.1,20,0.00,,,-99.99,FreeWX-Wi 1.02,2013-06-16 08:35:00,
2013-06-16 01:40:00,66.9,24.6,29.85,North,-999,0.0,3.6,20,0.00,,,-99.99,FreeWX-Wi 1.02,2013-06-16 08:40:00,
2013-06-16 01:45:00,66.7,24.4,29.85,North,-999,0.0,2.7,20,0.00,,,-99.99,FreeWX-Wi 1.02,2013-06-16 08:45:00,
2013-06-16 01:50:00,66.6,26.6,29.85,North,-999,0.0,3.6,22,0.00,,,-99.99,FreeWX-Wi 1.02,2013-06-16 08:50:00,
2013-06-16 01:55:00,66.4,26.4,29.85,North,-999,0.0,4.9,22,0.00,,,-99.99,FreeWX-Wi 1.02,2013-06-16 08:55:00,
2013-06-16 02:00:00,66.0,27.1,29.85,West,278,1.0,3.6,23,0.00,,,-99.99,FreeWX-Wi 1.02,2013-06-16 09:00:00,
2013-06-16 02:05:00,66.0,27.1,29.85,NW,304,1.0,5.4,23,0.00,,,-99.99,FreeWX-Wi 1.02,2013-06-16 09:05:00,
2013-06-16 02:10:00,65.8,27.0,29.85,NNW,328,1.0,0.0,23,0.00,,,-99.99,FreeWX-Wi 1.02,2013-06-16 09:10:00,
2013-06-16 02:15:00,65.7,26.8,29.85,North,353,1.0,4.0,23,0.00,,,-99.99,FreeWX-Wi 1.02,2013-06-16 09:15:00,
2013-06-16 02:20:00,65.5,26.8,29.85,NNE,13,1.0,2.2,23,0.00,,,-99.99,FreeWX-Wi 1.02,2013-06-16 09:20:00,
2013-06-16 02:25:00,65.5,26.8,29.85,NNE,23,1.0,3.1,23,0.00,,,-99.99,FreeWX-Wi 1.02,2013-06-16 09:25:00,
2013-06-16 02:30:00,65.1,26.4,29.85,NE,34,1.0,4.0,23,0.00,,,-99.99,FreeWX-Wi 1.02,2013-06-16 09:30:00,
2013-06-16 02:35:00,64.9,26.2,29.85,NE,43,1.0,3.1,23,0.00,,,-99.99,FreeWX-Wi 1.02,2013-06-16 09:35:00,
2013-06-16 02:40:00,64.6,25.9,29.85,NE,52,1.0,4.0,23,0.00,,,-99.99,FreeWX-Wi 1.02,2013-06-16 09:40:00,
2013-06-16 02:45:00,64.8,26.1,29.85,NE,55,1.0,4.0,23,0.00,,,-99.99,FreeWX-Wi 1.02,2013-06-16 09:45:00,
2013-06-16 02:50:00,64.6,25.9,29.85,ENE,57,1.0,3.1,23,0.00,,,-99.99,FreeWX-Wi 1.02,2013-06-16 09:50:00,
2013-06-16 02:55:00,64.6,22.6,29.85,ENE,60,1.0,3.1,20,0.00,,,-99.99,FreeWX-Wi 1.02,2013-06-16 09:55:00,
2013-06-16 03:00:00,64.4,22.5,29.85,North,-999,0.0,3.6,20,0.00,,,-99.99,FreeWX-Wi 1.02,2013-06-16 10:00:00,
2013-06-16 03:05:00,64.6,20.1,29.85,North,-999,0.0,3.1,18,0.00,,,-99.99,FreeWX-Wi 1.02,2013-06-16 10:05:00,
2013-06-16 03:10:00,64.4,19.9,29.85,North,-999,0.0,0.0,18,0.00,,,-99.99,FreeWX-Wi 1.02,2013-06-16 10:10:00,
2013-06-16 03:15:00,64.2,19.8,29.85,North,-999,0.0,0.0,18,0.00,,,-99.99,FreeWX-Wi 1.02,2013-06-16 10:15:00,
2013-06-16 03:20:00,63.7,19.4,29.88,North,-999,0.0,3.6,18,0.00,,,-99.99,FreeWX-Wi 1.02,2013-06-16 10:20:00,
2013-06-16 03:25:00,63.3,19.0,29.88,North,-999,0.0,2.2,18,0.00,,,-99.99,FreeWX-Wi 1.02,2013-06-16 10:25:00,
2013-06-16 03:31:00,63.1,19.0,29.88,North,-999,0.0,2.7,18,0.00,,,-99.99,FreeWX-Wi 1.02,2013-06-16 10:31:00,
2013-06-16 03:36:00,63.1,19.0,29.88,North,-999,0.0,0.0,18,0.00,,,-99.99,FreeWX-Wi 1.02,2013-06-16 10:36:00,
2013-06-16 03:41:00,63.1,19.0,29.88,North,-999,0.0,0.0,18,0.00,,,-99.99,FreeWX-Wi 1.02,2013-06-16 10:41:00,
2013-06-16 03:46:00,63.1,19.0,29.88,North,-999,0.0,0.0,18,0.00,,,-99.99,FreeWX-Wi 1.02,2013-06-16 10:46:00,
2013-06-16 03:51:00,63.1,19.0,29.88,North,-999,0.0,0.0,18,0.00,,,-99.99,FreeWX-Wi 1.02,2013-06-16 10:51:00,
2013-06-16 03:56:00,62.8,18.7,29.88,North,-999,0.0,0.0,18,0.00,,,-99.99,FreeWX-Wi 1.02,2013-06-16 10:56:00,
2013-06-16 04:01:00,62.6,18.5,29.88,North,-999,0.0,0.0,18,0.00,,,-99.99,FreeWX-Wi 1.02,2013-06-16 11:01:00,
2013-06-16 04:06:00,62.4,19.6,29.88,North,-999,0.0,4.0,19,0.00,,,-99.99,FreeWX-Wi 1.02,2013-06-16 11:06:00,
2013-06-16 04:11:00,62.6,18.5,29.88,North,-999,0.0,3.1,18,0.00,,,-99.99,FreeWX-Wi 1.02,2013-06-16 11:11:00,
2013-06-16 04:16:00,62.4,19.6,29.88,North,-999,0.0,0.0,19,0.00,,,-99.99,FreeWX-Wi 1.02,2013-06-16 11:16:00,
2013-06-16 04:21:00,62.6,18.5,29.88,North,-999,0.0,3.1,18,0.00,,,-99.99,FreeWX-Wi 1.02,2013-06-16 11:21:00,
2013-06-16 04:26:00,62.6,18.5,29.88,North,-999,0.0,2.7,18,0.00,,,-99.99,FreeWX-Wi 1.02,2013-06-16 11:26:00,
2013-06-16 04:31:00,62.2,19.4,29.88,North,-999,0.0,3.6,19,0.00,,,-99.99,FreeWX-Wi 1.02,2013-06-16 11:31:00,
2013-06-16 04:36:00,62.2,19.4,29.88,North,-999,0.0,4.0,19,0.00,,,-99.99,FreeWX-Wi 1.02,2013-06-16 11:36:00,
2013-06-16 04:41:00,62.1,19.4,29.88,North,-999,0.0,4.9,19,0.00,,,-99.99,FreeWX-Wi 1.02,2013-06-16 11:41:00,
2013-06-16 04:46:00,62.2,19.4,29.88,ENE,61,1.0,4.0,19,0.00,,,-99.99,FreeWX-Wi 1.02,2013-06-16 11:46:00,
2013-06-16 04:51:00,62.1,19.4,29.88,ENE,60,1.0,4.0,19,0.00,,,-99.99,FreeWX-Wi 1.02,2013-06-16 11:51:00,
2013-06-16 04:56:00,61.9,19.2,29.88,ENE,61,1.0,3.6,19,0.00,,,-99.99,FreeWX-Wi 1.02,2013-06-16 11:56:00,
2013-06-16 05:01:00,61.9,19.2,29.88,ENE,62,1.0,0.0,19,0.00,,,-99.99,FreeWX-Wi 1.02,2013-06-16 12:01:00,
2013-06-16 05:06:00,61.9,19.2,29.88,ENE,62,1.0,3.6,19,0.00,,,-99.99,FreeWX-Wi 1.02,2013-06-16 12:06:00,
2013-06-16 05:11:00,61.9,19.2,29.88,ENE,62,1.0,3.1,19,0.00,,,-99.99,FreeWX-Wi 1.02,2013-06-16 12:11:00,
2013-06-16 05:16:00,62.1,19.4,29.88,ENE,64,1.0,3.1,19,0.00,,,-99.99,FreeWX-Wi 1.02,2013-06-16 12:16:00,
2013-06-16 05:21:00,61.7,19.0,29.88,ENE,65,1.0,3.6,19,0.00,,,-99.99,FreeWX-Wi 1.02,2013-06-16 12:21:00,
2013-06-16 05:26:00,61.7,19.0,29.88,ENE,65,1.0,3.6,19,0.00,,,-99.99,FreeWX-Wi 1.02,2013-06-16 12:26:00,
2013-06-16 05:31:00,61.7,19.0,29.88,ENE,65,1.0,4.0,19,0.00,,,-99.99,FreeWX-Wi 1.02,2013-06-16 12:31:00,
2013-06-16 05:36:00,61.7,19.0,29.88,ENE,65,1.0,3.6,19,0.00,,,-99.99,FreeWX-Wi 1.02,2013-06-16 12:36:00,
2013-06-16 05:41:00,61.7,19.0,29.88,ENE,64,1.0,2.7,19,0.00,,,-99.99,FreeWX-Wi 1.02,2013-06-16 12:41:00,
2013-06-16 05:46:00,61.3,18.7,29.88,ENE,64,1.0,0.0,19,0.00,,,-99.99,FreeWX-Wi 1.02,2013-06-16 12:46:00,
2013-06-16 05:51:00,61.0,18.5,29.88,North,-999,0.0,3.1,19,0.00,,,-99.99,FreeWX-Wi 1.02,2013-06-16 12:51:00,
2013-06-16 05:56:00,61.2,18.5,29.88,North,-999,0.0,2.2,19,0.00,,,-99.99,FreeWX-Wi 1.02,2013-06-16 12:56:00,
2013-06-16 06:01:00,61.2,18.5,29.88,North,-999,0.0,2.7,19,0.00,,,-99.99,FreeWX-Wi 1.02,2013-06-16 13:01:00,
2013-06-16 06:06:00,61.0,18.5,29.88,North,-999,0.0,3.1,19,0.00,,,-99.99,FreeWX-Wi 1.02,2013-06-16 13:06:00,
2013-06-16 06:11:00,63.3,19.0,29.88,North,-999,0.0,3.6,18,0.00,,,-99.99,FreeWX-Wi 1.02,2013-06-16 13:11:00,
2013-06-16 06:16:00,66.0,21.4,29.88,North,-999,0.0,0.0,18,0.00,,,-99.99,FreeWX-Wi 1.02,2013-06-16 13:16:00,
2013-06-16 06:21:00,67.6,21.2,29.91,North,-999,0.0,2.2,17,0.00,,,-99.99,FreeWX-Wi 1.02,2013-06-16 13:21:00,
2013-06-16 06:26:00,68.7,22.1,29.91,North,-999,0.0,0.0,17,0.00,,,-99.99,FreeWX-Wi 1.02,2013-06-16 13:26:00,
2013-06-16 06:31:00,69.6,22.8,29.91,North,-999,0.0,0.0,17,0.00,,,-99.99,FreeWX-Wi 1.02,2013-06-16 13:31:00,
2013-06-16 06:36:00,70.2,23.4,29.91,North,-999,0.0,0.0,17,0.00,,,-99.99,FreeWX-Wi 1.02,2013-06-16 13:36:00,
2013-06-16 06:41:00,70.9,23.9,29.91,North,-999,0.0,0.0,17,0.00,,,-99.99,FreeWX-Wi 1.02,2013-06-16 13:41:00,
2013-06-16 06:46:00,71.6,23.0,29.91,North,-999,0.0,0.0,16,0.00,,,-99.99,FreeWX-Wi 1.02,2013-06-16 13:46:00,
2013-06-16 06:51:00,72.3,23.5,29.91,North,-999,0.0,0.0,16,0.00,,,-99.99,FreeWX-Wi 1.02,2013-06-16 13:51:00,
2013-06-16 06:56:00,72.9,24.1,29.91,North,-999,0.0,0.0,16,0.00,,,-99.99,FreeWX-Wi 1.02,2013-06-16 13:56:00,
2013-06-16 07:01:00,73.4,24.4,29.91,North,-999,0.0,0.0,16,0.00,,,-99.99,FreeWX-Wi 1.02,2013-06-16 14:01:00,
2013-06-16 07:06:00,73.8,24.8,29.91,North,-999,0.0,0.0,16,0.00,,,-99.99,FreeWX-Wi 1.02,2013-06-16 14:06:00,
2013-06-16 07:11:00,74.3,25.2,29.91,North,-999,0.0,0.0,16,0.00,,,-99.99,FreeWX-Wi 1.02,2013-06-16 14:11:00,
2013-06-16 07:16:00,74.7,25.5,29.91,North,-999,0.0,0.0,16,0.00,,,-99.99,FreeWX-Wi 1.02,2013-06-16 14:16:00,
2013-06-16 07:21:00,74.8,25.7,29.91,North,-999,0.0,0.0,16,0.00,,,-99.99,FreeWX-Wi 1.02,2013-06-16 14:21:00,
2013-06-16 07:26:00,75.2,24.4,29.91,North,-999,0.0,0.0,15,0.00,,,-99.99,FreeWX-Wi 1.02,2013-06-16 14:26:00,
2013-06-16 07:31:00,75.2,24.4,29.91,North,-999,0.0,0.0,15,0.00,,,-99.99,FreeWX-Wi 1.02,2013-06-16 14:31:00,
2013-06-16 07:36:00,75.6,24.6,29.94,North,-999,0.0,0.0,15,0.00,,,-99.99,FreeWX-Wi 1.02,2013-06-16 14:36:00,
2013-06-16 07:41:00,75.9,25.0,29.94,North,-999,0.0,0.0,15,0.00,,,-99.99,FreeWX-Wi 1.02,2013-06-16 14:41:00,
2013-06-16 07:46:00,76.3,25.2,29.94,North,-999,0.0,0.0,15,0.00,,,-99.99,FreeWX-Wi 1.02,2013-06-16 14:46:00,
2013-06-16 07:51:00,76.6,25.5,29.94,North,-999,0.0,0.0,15,0.00,,,-99.99,FreeWX-Wi 1.02,2013-06-16 14:51:00,
2013-06-16 07:56:00,76.5,25.3,29.94,North,-999,0.0,0.0,15,0.00,,,-99.99,FreeWX-Wi 1.02,2013-06-16 14:56:00,
2013-06-16 08:01:00,77.4,26.1,29.94,North,-999,0.0,0.0,15,0.00,,,-99.99,FreeWX-Wi 1.02,2013-06-16 15:01:00,
2013-06-16 08:06:00,77.5,26.2,29.94,North,-999,0.0,0.0,15,0.00,,,-99.99,FreeWX-Wi 1.02,2013-06-16 15:06:00,
2013-06-16 08:11:00,78.6,27.1,29.94,North,-999,0.0,0.0,15,0.00,,,-99.99,FreeWX-Wi 1.02,2013-06-16 15:11:00,
2013-06-16 08:16:00,79.5,27.9,29.94,North,-999,0.0,0.0,15,0.00,,,-99.99,FreeWX-Wi 1.02,2013-06-16 15:16:00,
2013-06-16 08:21:00,80.4,28.6,29.94,North,-999,0.0,0.0,15,0.00,,,-99.99,FreeWX-Wi 1.02,2013-06-16 15:21:00,
2013-06-16 08:26:00,80.8,27.1,29.94,North,-999,0.0,0.0,14,0.00,,,-99.99,FreeWX-Wi 1.02,2013-06-16 15:26:00,
2013-06-16 08:31:00,81.5,27.7,29.94,North,-999,0.0,0.0,14,0.00,,,-99.99,FreeWX-Wi 1.02,2013-06-16 15:31:00,
2013-06-16 08:36:00,82.6,28.6,29.94,North,-999,0.0,0.0,14,0.00,,,-99.99,FreeWX-Wi 1.02,2013-06-16 15:36:00,
2013-06-16 08:41:00,82.4,28.4,29.94,North,-999,0.0,0.0,14,0.00,,,-99.99,FreeWX-Wi 1.02,2013-06-16 15:41:00,
2013-06-16 08:46:00,83.8,29.5,29.94,North,-999,0.0,0.0,14,0.00,,,-99.99,FreeWX-Wi 1.02,2013-06-16 15:46:00,
2013-06-16 08:51:00,84.7,28.4,29.94,North,-999,0.0,0.0,13,0.00,,,-99.99,FreeWX-Wi 1.02,2013-06-16 15:51:00,
2013-06-16 08:56:00,85.3,28.9,29.94,North,-999,0.0,0.0,13,0.00,,,-99.99,FreeWX-Wi 1.02,2013-06-16 15:56:00,
2013-06-16 09:01:00,85.5,28.9,29.94,North,-999,0.0,0.0,13,0.00,,,-99.99,FreeWX-Wi 1.02,2013-06-16 16:01:00,
2013-06-16 09:06:00,85.8,29.3,29.94,North,-999,0.0,6.3,13,0.00,,,-99.99,FreeWX-Wi 1.02,2013-06-16 16:06:00,
2013-06-16 09:11:00,86.4,29.7,29.94,North,-999,0.0,5.4,13,0.00,,,-99.99,FreeWX-Wi 1.02,2013-06-16 16:11:00,
2013-06-16 09:16:00,87.1,30.2,29.94,NNE,21,1.0,3.6,13,0.00,,,-99.99,FreeWX-Wi 1.02,2013-06-16 16:16:00,
2013-06-16 09:21:00,87.8,30.7,29.94,NNW,339,1.0,4.0,13,0.00,,,-99.99,FreeWX-Wi 1.02,2013-06-16 16:21:00,
2013-06-16 09:26:00,88.5,31.5,29.94,NW,314,1.0,4.9,13,0.00,,,-99.99,FreeWX-Wi 1.02,2013-06-16 16:26:00,
2013-06-16 09:31:00,89.4,32.0,29.94,WNW,298,2.0,6.3,13,0.00,,,-99.99,FreeWX-Wi 1.02,2013-06-16 16:31:00,
2013-06-16 09:36:00,89.8,30.4,29.94,WNW,288,2.0,5.4,12,0.00,,,-99.99,FreeWX-Wi 1.02,2013-06-16 16:36:00,
2013-06-16 09:41:00,90.7,31.1,29.94,WNW,292,2.0,4.9,12,0.00,,,-99.99,FreeWX-Wi 1.02,2013-06-16 16:41:00,
2013-06-16 09:46:00,90.9,31.3,29.94,WNW,298,2.0,5.8,12,0.00,,,-99.99,FreeWX-Wi 1.02,2013-06-16 16:46:00,
2013-06-16 09:51:00,91.6,31.8,29.94,NW,304,2.0,8.7,12,0.00,,,-99.99,FreeWX-Wi 1.02,2013-06-16 16:51:00,
2013-06-16 09:56:00,92.7,32.5,29.94,WNW,297,3.0,10.1,12,0.00,,,-99.99,FreeWX-Wi 1.02,2013-06-16 16:56:00,
2013-06-16 10:01:00,93.4,30.9,29.94,WNW,293,4.0,11.0,11,0.00,,,-99.99,FreeWX-Wi 1.02,2013-06-16 17:01:00,
2013-06-16 10:06:00,93.9,31.5,29.94,WNW,295,4.0,11.0,11,0.00,,,-99.99,FreeWX-Wi 1.02,2013-06-16 17:06:00,
2013-06-16 10:11:00,94.5,37.9,29.94,WNW,287,5.0,12.3,14,0.00,,,-99.99,FreeWX-Wi 1.02,2013-06-16 17:11:00,
2013-06-16 10:16:00,94.8,38.1,29.94,West,276,6.0,13.2,14,0.00,,,-99.99,FreeWX-Wi 1.02,2013-06-16 17:16:00,
2013-06-16 10:21:00,95.4,38.7,29.94,West,269,7.0,12.8,14,0.00,,,-99.99,FreeWX-Wi 1.02,2013-06-16 17:21:00,
2013-06-16 10:26:00,95.7,38.8,29.94,West,266,7.0,12.3,14,0.00,,,-99.99,FreeWX-Wi 1.02,2013-06-16 17:26:00,
2013-06-16 10:31:00,96.1,39.2,29.94,West,263,7.0,14.5,14,0.00,,,-99.99,FreeWX-Wi 1.02,2013-06-16 17:31:00,
2013-06-16 10:36:00,96.4,39.4,29.94,West,259,8.0,15.4,14,0.00,,,-99.99,FreeWX-Wi 1.02,2013-06-16 17:36:00,
2013-06-16 10:41:00,96.8,37.8,29.94,West,259,8.0,15.0,13,0.00,,,-99.99,FreeWX-Wi 1.02,2013-06-16 17:41:00,
2013-06-16 10:46:00,97.5,38.3,29.94,West,259,8.0,15.0,13,0.00,,,-99.99,FreeWX-Wi 1.02,2013-06-16 17:46:00,
2013-06-16 10:51:00,97.7,38.5,29.94,West,261,8.0,12.8,13,0.00,,,-99.99,FreeWX-Wi 1.02,2013-06-16 17:51:00,
2013-06-16 10:56:00,97.9,38.7,29.94,West,263,9.0,13.2,13,0.00,,,-99.99,FreeWX-Wi 1.02,2013-06-16 17:56:00,
2013-06-16 11:01:00,98.1,38.8,29.94,West,264,8.0,17.4,13,0.00,,,-99.99,FreeWX-Wi 1.02,2013-06-16 18:01:00,
2013-06-16 11:06:00,98.6,39.2,29.94,West,264,8.0,11.9,13,0.00,,,-99.99,FreeWX-Wi 1.02,2013-06-16 18:06:00,
2013-06-16 11:11:00,99.1,39.6,29.94,West,264,8.0,13.2,13,0.00,,,-99.99,FreeWX-Wi 1.02,2013-06-16 18:11:00,
2013-06-16 11:16:00,99.9,40.1,29.94,West,263,8.0,11.0,13,0.00,,,-99.99,FreeWX-Wi 1.02,2013-06-16 18:16:00,
2013-06-16 11:21:00,100.2,40.5,29.94,West,260,8.0,12.3,13,0.00,,,-99.99,FreeWX-Wi 1.02,2013-06-16 18:21:00,
2013-06-16 11:26:00,100.0,40.3,29.94,West,259,7.0,12.3,13,0.00,,,-99.99,FreeWX-Wi 1.02,2013-06-16 18:26:00,
2013-06-16 11:31:00,100.0,40.3,29.94,WSW,257,7.0,11.0,13,0.00,,,-99.99,FreeWX-Wi 1.02,2013-06-16 18:31:00,
2013-06-16 11:36:00,100.2,40.5,29.91,WSW,254,7.0,12.3,13,0.00,,,-99.99,FreeWX-Wi 1.02,2013-06-16 18:36:00,
2013-06-16 11:41:00,100.6,38.7,29.91,WSW,253,7.0,11.0,12,0.00,,,-99.99,FreeWX-Wi 1.02,2013-06-16 18:41:00,
2013-06-16 11:46:00,101.1,39.0,29.91,WSW,252,7.0,10.1,12,0.00,,,-99.99,FreeWX-Wi 1.02,2013-06-16 18:46:00,
2013-06-16 11:51:00,101.3,39.2,29.94,WSW,252,7.0,10.5,12,0.00,,,-99.99,FreeWX-Wi 1.02,2013-06-16 18:51:00,
2013-06-16 11:56:00,101.8,39.6,29.94,WSW,250,6.0,10.5,12,0.00,,,-99.99,FreeWX-Wi 1.02,2013-06-16 18:56:00,
2013-06-16 12:01:00,102.0,39.7,29.94,WSW,248,6.0,11.9,12,0.00,,,-99.99,FreeWX-Wi 1.02,2013-06-16 19:01:00,
2013-06-16 12:06:00,102.0,39.7,29.94,WSW,250,6.0,15.0,12,0.00,,,-99.99,FreeWX-Wi 1.02,2013-06-16 19:06:00,
2013-06-16 12:11:00,102.4,40.1,29.94,WSW,250,7.0,20.6,12,0.00,,,-99.99,FreeWX-Wi 1.02,2013-06-16 19:11:00,
2013-06-16 12:16:00,102.7,40.3,29.94,WSW,250,8.0,17.0,12,0.00,,,-99.99,FreeWX-Wi 1.02,2013-06-16 19:16:00,
2013-06-16 12:21:00,103.5,40.8,29.91,WSW,252,8.0,14.1,12,0.00,,,-99.99,FreeWX-Wi 1.02,2013-06-16 19:21:00,
2013-06-16 12:26:00,103.3,40.8,29.91,WSW,256,8.0,16.8,12,0.00,,,-99.99,FreeWX-Wi 1.02,2013-06-16 19:26:00,
2013-06-16 12:31:00,103.1,40.6,29.91,West,260,8.0,11.0,12,0.00,,,-99.99,FreeWX-Wi 1.02,2013-06-16 19:31:00,
2013-06-16 12:36:00,103.6,41.0,29.91,West,262,8.0,10.5,12,0.00,,,-99.99,FreeWX-Wi 1.02,2013-06-16 19:36:00,
2013-06-16 12:41:00,103.8,41.2,29.91,West,263,8.0,13.2,12,0.00,,,-99.99,FreeWX-Wi 1.02,2013-06-16 19:41:00,
2013-06-16 12:46:00,103.5,40.8,29.91,West,265,7.0,8.7,12,0.00,,,-99.99,FreeWX-Wi 1.02,2013-06-16 19:46:00,
2013-06-16 12:51:00,104.2,41.4,29.91,West,262,7.0,11.0,12,0.00,,,-99.99,FreeWX-Wi 1.02,2013-06-16 19:51:00,
2013-06-16 12:56:00,104.2,41.4,29.91,West,259,7.0,17.4,12,0.00,,,-99.99,FreeWX-Wi 1.02,2013-06-16 19:56:00,
2013-06-16 13:01:00,104.2,41.4,29.91,WSW,257,8.0,16.3,12,0.00,,,-99.99,FreeWX-Wi 1.02,2013-06-16 20:01:00,
2013-06-16 13:06:00,104.7,41.9,29.91,WSW,253,8.0,15.0,12,0.00,,,-99.99,FreeWX-Wi 1.02,2013-06-16 20:06:00,
2013-06-16 13:11:00,104.7,41.9,29.91,WSW,247,8.0,15.4,12,0.00,,,-99.99,FreeWX-Wi 1.02,2013-06-16 20:11:00,
2013-06-16 13:16:00,104.7,41.9,29.91,WSW,249,8.0,13.2,12,0.00,,,-99.99,FreeWX-Wi 1.02,2013-06-16 20:16:00,
2013-06-16 13:21:00,105.1,42.1,29.91,WSW,249,8.0,12.3,12,0.00,,,-99.99,FreeWX-Wi 1.02,2013-06-16 20:21:00,
2013-06-16 13:26:00,105.6,42.6,29.91,WSW,248,8.0,13.2,12,0.00,,,-99.99,FreeWX-Wi 1.02,2013-06-16 20:26:00,
2013-06-16 13:31:00,105.3,42.3,29.91,WSW,251,7.0,16.3,12,0.00,,,-99.99,FreeWX-Wi 1.02,2013-06-16 20:31:00,
2013-06-16 13:36:00,105.8,40.5,29.91,WSW,251,7.0,12.8,11,0.00,,,-99.99,FreeWX-Wi 1.02,2013-06-16 20:36:00,
2013-06-16 13:41:00,104.9,41.9,29.91,West,259,7.0,11.0,12,0.00,,,-99.99,FreeWX-Wi 1.02,2013-06-16 20:41:00,
2013-06-16 13:46:00,104.9,41.9,29.91,West,260,6.0,13.2,12,0.00,,,-99.99,FreeWX-Wi 1.02,2013-06-16 20:46:00,
2013-06-16 13:51:00,104.4,41.5,29.91,West,267,6.0,8.7,12,0.00,,,-99.99,FreeWX-Wi 1.02,2013-06-16 20:51:00,
2013-06-16 13:56:00,105.3,42.3,29.91,West,271,5.0,11.0,12,0.00,,,-99.99,FreeWX-Wi 1.02,2013-06-16 20:56:00,
2013-06-16 14:01:00,106.7,41.2,29.91,West,269,5.0,10.1,11,0.00,,,-99.99,FreeWX-Wi 1.02,2013-06-16 21:01:00,
2013-06-16 14:06:00,106.3,40.8,29.88,West,266,5.0,12.8,11,0.00,,,-99.99,FreeWX-Wi 1.02,2013-06-16 21:06:00,
2013-06-16 14:11:00,106.7,41.2,29.88,West,264,5.0,13.2,11,0.00,,,-99.99,FreeWX-Wi 1.02,2013-06-16 21:11:00,
2013-06-16 14:16:00,106.7,41.2,29.88,WSW,258,6.0,11.9,11,0.00,,,-99.99,FreeWX-Wi 1.02,2013-06-16 21:16:00,
2013-06-16 14:21:00,106.9,41.2,29.88,WSW,256,6.0,13.6,11,0.00,,,-99.99,FreeWX-Wi 1.02,2013-06-16 21:21:00,
2013-06-16 14:26:00,106.9,41.2,29.88,WSW,256,6.0,11.0,11,0.00,,,-99.99,FreeWX-Wi 1.02,2013-06-16 21:26:00,
2013-06-16 14:31:00,106.9,41.2,29.88,West,259,7.0,11.0,11,0.00,,,-99.99,FreeWX-Wi 1.02,2013-06-16 21:31:00,
2013-06-16 14:36:00,107.2,41.5,29.88,West,262,7.0,14.5,11,0.00,,,-99.99,FreeWX-Wi 1.02,2013-06-16 21:36:00,
2013-06-16 14:41:00,107.1,41.4,29.88,West,261,8.0,16.3,11,0.00,,,-99.99,FreeWX-Wi 1.02,2013-06-16 21:41:00,
2013-06-16 14:46:00,107.1,41.4,29.88,West,261,7.0,16.8,11,0.00,,,-99.99,FreeWX-Wi 1.02,2013-06-16 21:46:00,
2013-06-16 14:51:00,107.1,41.4,29.88,West,261,8.0,16.3,11,0.00,,,-99.99,FreeWX-Wi 1.02,2013-06-16 21:51:00,
2013-06-16 14:56:00,107.1,41.4,29.88,West,263,8.0,10.1,11,0.00,,,-99.99,FreeWX-Wi 1.02,2013-06-16 21:56:00,
2013-06-16 15:01:00,107.2,41.5,29.88,West,262,8.0,14.5,11,0.00,,,-99.99,FreeWX-Wi 1.02,2013-06-16 22:01:00,
2013-06-16 15:06:00,107.2,41.5,29.88,West,263,9.0,16.8,11,0.00,,,-99.99,FreeWX-Wi 1.02,2013-06-16 22:06:00,
2013-06-16 15:11:00,107.1,41.4,29.88,West,263,9.0,17.4,11,0.00,,,-99.99,FreeWX-Wi 1.02,2013-06-16 22:11:00,
2013-06-16 15:16:00,106.7,41.2,29.88,West,264,9.0,12.8,11,0.00,,,-99.99,FreeWX-Wi 1.02,2013-06-16 22:16:00,
2013-06-16 15:21:00,106.3,40.8,29.88,West,264,9.0,17.4,11,0.00,,,-99.99,FreeWX-Wi 1.02,2013-06-16 22:21:00,
2013-06-16 15:26:00,106.2,40.6,29.88,West,263,10.0,17.4,11,0.00,,,-99.99,FreeWX-Wi 1.02,2013-06-16 22:26:00,
2013-06-16 15:31:00,106.0,40.6,29.88,West,262,10.0,18.3,11,0.00,,,-99.99,FreeWX-Wi 1.02,2013-06-16 22:31:00,
2013-06-16 15:36:00,105.6,42.6,29.88,West,264,10.0,16.3,12,0.00,,,-99.99,FreeWX-Wi 1.02,2013-06-16 22:36:00,
2013-06-16 15:41:00,104.9,41.9,29.88,West,265,10.0,14.5,12,0.00,,,-99.99,FreeWX-Wi 1.02,2013-06-16 22:41:00,
2013-06-16 15:46:00,105.3,42.3,29.88,West,265,10.0,17.4,12,0.00,,,-99.99,FreeWX-Wi 1.02,2013-06-16 22:46:00,
2013-06-16 15:51:00,105.3,42.3,29.88,West,267,9.0,19.2,12,0.00,,,-99.99,FreeWX-Wi 1.02,2013-06-16 22:51:00,
2013-06-16 15:56:00,105.1,42.1,29.88,West,267,9.0,22.8,12,0.00,,,-99.99,FreeWX-Wi 1.02,2013-06-16 22:56:00,
2013-06-16 16:01:00,104.7,41.9,29.88,West,266,10.0,16.8,12,0.00,,,-99.99,FreeWX-Wi 1.02,2013-06-16 23:01:00,
2013-06-16 16:06:00,104.5,41.7,29.88,West,266,10.0,17.0,12,0.00,,,-99.99,FreeWX-Wi 1.02,2013-06-16 23:06:00,
2013-06-16 16:11:00,104.0,41.4,29.88,West,265,10.0,19.7,12,0.00,,,-99.99,FreeWX-Wi 1.02,2013-06-16 23:11:00,
2013-06-16 16:16:00,104.2,41.4,29.88,West,266,10.0,16.3,12,0.00,,,-99.99,FreeWX-Wi 1.02,2013-06-16 23:16:00,
2013-06-16 16:21:00,104.4,41.5,29.88,West,266,10.0,13.2,12,0.00,,,-99.99,FreeWX-Wi 1.02,2013-06-16 23:21:00,
2013-06-16 16:26:00,104.4,41.5,29.88,West,270,10.0,15.4,12,0.00,,,-99.99,FreeWX-Wi 1.02,2013-06-16 23:26:00,
2013-06-16 16:31:00,103.8,41.2,29.88,West,272,9.0,15.9,12,0.00,,,-99.99,FreeWX-Wi 1.02,2013-06-16 23:31:00,
2013-06-16 16:36:00,103.6,41.0,29.88,West,273,9.0,13.6,12,0.00,,,-99.99,FreeWX-Wi 1.02,2013-06-16 23:36:00,
2013-06-16 16:41:00,103.5,40.8,29.88,West,273,8.0,19.7,12,0.00,,,-99.99,FreeWX-Wi 1.02,2013-06-16 23:41:00,
2013-06-16 16:46:00,103.5,40.8,29.88,West,273,8.0,15.4,12,0.00,,,-99.99,FreeWX-Wi 1.02,2013-06-16 23:46:00,
2013-06-16 16:51:00,104.0,41.4,29.88,West,273,8.0,13.6,12,0.00,,,-99.99,FreeWX-Wi 1.02,2013-06-16 23:51:00,
2013-06-16 16:56:00,103.1,40.6,29.88,West,271,8.0,17.0,12,0.00,,,-99.99,FreeWX-Wi 1.02,2013-06-16 23:56:00,
2013-06-16 17:01:00,102.6,40.3,29.88,West,272,8.0,12.3,12,0.00,,,-99.99,FreeWX-Wi 1.02,2013-06-17 00:01:00,
2013-06-16 17:06:00,102.2,39.9,29.88,West,271,9.0,16.3,12,0.00,,,-99.99,FreeWX-Wi 1.02,2013-06-17 00:06:00,
2013-06-16 17:11:00,102.0,39.7,29.88,West,275,9.0,15.4,12,0.00,,,-99.99,FreeWX-Wi 1.02,2013-06-17 00:11:00,
2013-06-16 17:16:00,101.7,39.6,29.88,West,274,9.0,15.9,12,0.00,,,-99.99,FreeWX-Wi 1.02,2013-06-17 00:16:00,
2013-06-16 17:21:00,101.5,39.4,29.85,West,275,9.0,11.0,12,0.00,,,-99.99,FreeWX-Wi 1.02,2013-06-17 00:21:00,
2013-06-16 17:26:00,100.9,39.0,29.85,West,274,9.0,17.4,12,0.00,,,-99.99,FreeWX-Wi 1.02,2013-06-17 00:26:00,
2013-06-16 17:31:00,100.2,40.5,29.85,West,273,9.0,17.0,13,0.00,,,-99.99,FreeWX-Wi 1.02,2013-06-17 00:31:00,
2013-06-16 17:36:00,99.9,40.1,29.85,West,274,9.0,19.2,13,0.00,,,-99.99,FreeWX-Wi 1.02,2013-06-17 00:36:00,
2013-06-16 17:41:00,99.7,40.1,29.85,West,273,9.0,19.7,13,0.00,,,-99.99,FreeWX-Wi 1.02,2013-06-17 00:41:00,
2013-06-16 17:46:00,99.0,39.6,29.85,West,275,10.0,16.8,13,0.00,,,-99.99,FreeWX-Wi 1.02,2013-06-17 00:46:00,
2013-06-16 17:51:00,98.2,38.8,29.85,West,273,10.0,15.4,13,0.00,,,-99.99,FreeWX-Wi 1.02,2013-06-17 00:51:00,
2013-06-16 17:56:00,98.1,38.8,29.85,West,275,10.0,15.0,13,0.00,,,-99.99,FreeWX-Wi 1.02,2013-06-17 00:56:00,
2013-06-16 18:01:00,97.3,38.3,29.85,West,274,10.0,13.2,13,0.00,,,-99.99,FreeWX-Wi 1.02,2013-06-17 01:01:00,
2013-06-16 18:06:00,97.0,37.9,29.85,West,272,10.0,21.9,13,0.00,,,-99.99,FreeWX-Wi 1.02,2013-06-17 01:06:00,
2013-06-16 18:11:00,96.6,39.6,29.85,West,271,9.0,21.9,14,0.00,,,-99.99,FreeWX-Wi 1.02,2013-06-17 01:11:00,
2013-06-16 18:16:00,96.1,39.2,29.85,West,273,8.0,11.0,14,0.00,,,-99.99,FreeWX-Wi 1.02,2013-06-17 01:16:00,
2013-06-16 18:21:00,95.4,38.7,29.85,West,272,8.0,13.2,14,0.00,,,-99.99,FreeWX-Wi 1.02,2013-06-17 01:21:00,
2013-06-16 18:26:00,94.6,37.9,29.85,West,275,8.0,19.7,14,0.00,,,-99.99,FreeWX-Wi 1.02,2013-06-17 01:26:00,
2013-06-16 18:31:00,94.1,37.6,29.85,West,274,8.0,15.0,14,0.00,,,-99.99,FreeWX-Wi 1.02,2013-06-17 01:31:00,
2013-06-16 18:36:00,93.6,31.1,29.85,West,278,7.0,15.0,11,0.00,,,-99.99,FreeWX-Wi 1.02,2013-06-17 01:36:00,
2013-06-16 18:41:00,93.0,32.9,29.85,West,280,7.0,11.0,12,0.00,,,-99.99,FreeWX-Wi 1.02,2013-06-17 01:41:00,
2013-06-16 18:46:00,92.5,32.5,29.85,West,281,7.0,12.8,12,0.00,,,-99.99,FreeWX-Wi 1.02,2013-06-17 01:46:00,
2013-06-16 18:51:00,92.1,32.2,29.85,WNW,283,7.0,15.0,12,0.00,,,-99.99,FreeWX-Wi 1.02,2013-06-17 01:51:00,
2013-06-16 18:56:00,91.6,31.8,29.85,WNW,282,7.0,12.8,12,0.00,,,-99.99,FreeWX-Wi 1.02,2013-06-17 01:56:00,
2013-06-16 19:01:00,91.2,31.5,29.85,WNW,284,7.0,16.8,12,0.00,,,-99.99,FreeWX-Wi 1.02,2013-06-17 02:01:00,
2013-06-16 19:06:00,90.7,31.1,29.85,WNW,283,8.0,14.1,12,0.00,,,-99.99,FreeWX-Wi 1.02,2013-06-17 02:06:00,
2013-06-16 19:11:00,90.3,30.7,29.85,West,278,7.0,12.3,12,0.00,,,-99.99,FreeWX-Wi 1.02,2013-06-17 02:11:00,
2013-06-16 19:16:00,89.8,30.4,29.85,West,278,8.0,19.2,12,0.00,,,-99.99,FreeWX-Wi 1.02,2013-06-17 02:16:00,
2013-06-16 19:21:00,89.4,32.0,29.88,West,278,8.0,15.4,13,0.00,,,-99.99,FreeWX-Wi 1.02,2013-06-17 02:21:00,
2013-06-16 19:26:00,89.1,31.8,29.88,West,277,7.0,10.1,13,0.00,,,-99.99,FreeWX-Wi 1.02,2013-06-17 02:26:00,
2013-06-16 19:31:00,88.5,31.5,29.88,West,278,7.0,12.8,13,0.00,,,-99.99,FreeWX-Wi 1.02,2013-06-17 02:31:00,
2013-06-16 19:36:00,88.2,31.1,29.88,West,281,6.0,10.1,13,0.00,,,-99.99,FreeWX-Wi 1.02,2013-06-17 02:36:00,
2013-06-16 19:41:00,87.6,30.7,29.88,WNW,285,6.0,13.2,13,0.00,,,-99.99,FreeWX-Wi 1.02,2013-06-17 02:41:00,
2013-06-16 19:46:00,87.1,30.2,29.88,WNW,288,6.0,10.5,13,0.00,,,-99.99,FreeWX-Wi 1.02,2013-06-17 02:46:00,
2013-06-16 19:51:00,86.9,30.2,29.88,WNW,296,5.0,13.2,13,0.00,,,-99.99,FreeWX-Wi 1.02,2013-06-17 02:51:00,
2013-06-16 19:56:00,86.4,29.7,29.88,NW,309,5.0,5.8,13,0.00,,,-99.99,FreeWX-Wi 1.02,2013-06-17 02:56:00,
2013-06-16 20:01:00,86.0,29.5,29.88,NW,317,5.0,8.1,13,0.00,,,-99.99,FreeWX-Wi 1.02,2013-06-17 03:01:00,
2013-06-16 20:06:00,86.0,29.5,29.88,NW,324,5.0,10.5,13,0.00,,,-99.99,FreeWX-Wi 1.02,2013-06-17 03:06:00,
2013-06-16 20:11:00,85.6,29.1,29.88,NNW,332,4.0,13.2,13,0.00,,,-99.99,FreeWX-Wi 1.02,2013-06-17 03:11:00,
2013-06-16 20:16:00,85.6,29.1,29.88,NNW,339,4.0,10.1,13,0.00,,,-99.99,FreeWX-Wi 1.02,2013-06-17 03:16:00,
2013-06-16 20:21:00,85.5,28.9,29.88,NNW,342,5.0,10.1,13,0.00,,,-99.99,FreeWX-Wi 1.02,2013-06-17 03:21:00,
2013-06-16 20:26:00,85.1,28.8,29.88,NNW,341,4.0,6.3,13,0.00,,,-99.99,FreeWX-Wi 1.02,2013-06-17 03:26:00,
2013-06-16 20:31:00,84.6,28.2,29.88,NNW,343,4.0,10.1,13,0.00,,,-99.99,FreeWX-Wi 1.02,2013-06-17 03:31:00,
2013-06-16 20:36:00,84.6,28.2,29.88,NNW,344,4.0,12.3,13,0.00,,,-99.99,FreeWX-Wi 1.02,2013-06-17 03:36:00,
2013-06-16 20:41:00,84.6,28.2,29.88,NNW,344,4.0,7.2,13,0.00,,,-99.99,FreeWX-Wi 1.02,2013-06-17 03:41:00,
2013-06-16 20:46:00,84.2,28.0,29.88,NNW,344,4.0,7.6,13,0.00,,,-99.99,FreeWX-Wi 1.02,2013-06-17 03:46:00,
2013-06-16 20:51:00,84.0,29.7,29.88,NNW,341,4.0,8.3,14,0.00,,,-99.99,FreeWX-Wi 1.02,2013-06-17 03:51:00,
2013-06-16 20:56:00,84.0,29.7,29.88,NNW,347,4.0,7.6,14,0.00,,,-99.99,FreeWX-Wi 1.02,2013-06-17 03:56:00,
2013-06-16 21:01:00,83.5,29.3,29.88,NNW,344,4.0,7.6,14,0.00,,,-99.99,FreeWX-Wi 1.02,2013-06-17 04:01:00,
2013-06-16 21:06:00,83.3,29.1,29.88,NNW,344,3.0,7.2,14,0.00,,,-99.99,FreeWX-Wi 1.02,2013-06-17 04:06:00,
2013-06-16 21:11:00,82.8,28.8,29.88,NNW,339,3.0,4.0,14,0.00,,,-99.99,FreeWX-Wi 1.02,2013-06-17 04:11:00,
2013-06-16 21:16:00,82.0,28.0,29.88,NNW,339,3.0,6.3,14,0.00,,,-99.99,FreeWX-Wi 1.02,2013-06-17 04:16:00,
2013-06-16 21:21:00,82.2,28.2,29.88,NNW,331,3.0,8.3,14,0.00,,,-99.99,FreeWX-Wi 1.02,2013-06-17 04:21:00,
2013-06-16 21:26:00,82.2,28.2,29.88,NW,320,3.0,7.2,14,0.00,,,-99.99,FreeWX-Wi 1.02,2013-06-17 04:26:00,
2013-06-16 21:31:00,81.7,27.9,29.88,NW,314,2.0,6.3,14,0.00,,,-99.99,FreeWX-Wi 1.02,2013-06-17 04:31:00,
2013-06-16 21:36:00,81.5,27.7,29.88,WNW,302,3.0,10.1,14,0.00,,,-99.99,FreeWX-Wi 1.02,2013-06-17 04:36:00,
2013-06-16 21:41:00,81.9,28.0,29.88,WNW,292,4.0,9.6,14,0.00,,,-99.99,FreeWX-Wi 1.02,2013-06-17 04:41:00,
2013-06-16 21:46:00,81.5,27.7,29.88,WNW,284,4.0,11.0,14,0.00,,,-99.99,FreeWX-Wi 1.02,2013-06-17 04:46:00,
2013-06-16 21:51:00,81.7,27.9,29.88,West,280,4.0,11.9,14,0.00,,,-99.99,FreeWX-Wi 1.02,2013-06-17 04:51:00,
2013-06-16 21:56:00,81.9,28.0,29.88,West,276,4.0,11.9,14,0.00,,,-99.99,FreeWX-Wi 1.02,2013-06-17 04:56:00,
2013-06-16 22:01:00,81.9,28.0,29.88,West,274,5.0,12.3,14,0.00,,,-99.99,FreeWX-Wi 1.02,2013-06-17 05:01:00,
2013-06-16 22:06:00,81.9,28.0,29.88,West,273,6.0,15.0,14,0.00,,,-99.99,FreeWX-Wi 1.02,2013-06-17 05:06:00,
2013-06-16 22:11:00,81.7,27.9,29.88,West,271,6.0,12.3,14,0.00,,,-99.99,FreeWX-Wi 1.02,2013-06-17 05:11:00,
2013-06-16 22:16:00,81.5,27.7,29.88,West,271,6.0,10.5,14,0.00,,,-99.99,FreeWX-Wi 1.02,2013-06-17 05:16:00,
2013-06-16 22:21:00,81.5,27.7,29.88,West,274,6.0,11.9,14,0.00,,,-99.99,FreeWX-Wi 1.02,2013-06-17 05:21:00,
2013-06-16 22:26:00,81.5,27.7,29.88,West,275,6.0,10.5,14,0.00,,,-99.99,FreeWX-Wi 1.02,2013-06-17 05:26:00,
2013-06-16 22:31:00,81.3,27.5,29.88,West,276,6.0,9.6,14,0.00,,,-99.99,FreeWX-Wi 1.02,2013-06-17 05:31:00,
2013-06-16 22:36:00,81.3,27.5,29.88,West,277,6.0,11.4,14,0.00,,,-99.99,FreeWX-Wi 1.02,2013-06-17 05:36:00,
2013-06-16 22:41:00,81.3,27.5,29.88,West,278,6.0,13.2,14,0.00,,,-99.99,FreeWX-Wi 1.02,2013-06-17 05:41:00,
2013-06-16 22:46:00,81.1,27.5,29.88,West,274,6.0,10.5,14,0.00,,,-99.99,FreeWX-Wi 1.02,2013-06-17 05:46:00,
2013-06-16 22:51:00,81.0,27.3,29.88,West,272,6.0,13.6,14,0.00,,,-99.99,FreeWX-Wi 1.02,2013-06-17 05:51:00,
2013-06-16 22:56:00,81.3,27.5,29.88,West,271,6.0,15.0,14,0.00,,,-99.99,FreeWX-Wi 1.02,2013-06-17 05:56:00,
2013-06-16 23:01:00,81.0,27.3,29.88,West,271,6.0,8.7,14,0.00,,,-99.99,FreeWX-Wi 1.02,2013-06-17 06:01:00,
2013-06-16 23:06:00,81.3,27.5,29.88,West,275,6.0,8.1,14,0.00,,,-99.99,FreeWX-Wi 1.02,2013-06-17 06:06:00,
2013-06-16 23:11:00,81.1,27.5,29.88,West,277,5.0,8.1,14,0.00,,,-99.99,FreeWX-Wi 1.02,2013-06-17 06:11:00,
2013-06-16 23:16:00,81.0,27.3,29.88,West,279,5.0,11.0,14,0.00,,,-99.99,FreeWX-Wi 1.02,2013-06-17 06:16:00,
2013-06-16 23:21:00,81.1,27.5,29.88,West,280,4.0,10.1,14,0.00,,,-99.99,FreeWX-Wi 1.02,2013-06-17 06:21:00,
2013-06-16 23:26:00,81.5,27.7,29.88,WNW,286,4.0,14.5,14,0.00,,,-99.99,FreeWX-Wi 1.02,2013-06-17 06:26:00,
2013-06-16 23:31:00,81.7,27.9,29.88,WNW,287,4.0,6.3,14,0.00,,,-99.99,FreeWX-Wi 1.02,2013-06-17 06:31:00,
2013-06-16 23:36:00,81.3,27.5,29.88,WNW,287,4.0,6.3,14,0.00,,,-99.99,FreeWX-Wi 1.02,2013-06-17 06:36:00,
2013-06-16 23:41:00,81.0,27.3,29.88,WNW,296,4.0,5.8,14,0.00,,,-99.99,FreeWX-Wi 1.02,2013-06-17 06:41:00,
2013-06-16 23:46:00,80.6,27.0,29.88,WNW,303,3.0,7.6,14,0.00,,,-99.99,FreeWX-Wi 1.02,2013-06-17 06:46:00,
2013-06-16 23:51:00,80.8,27.1,29.88,WNW,303,3.0,10.1,14,0.00,,,-99.99,FreeWX-Wi 1.02,2013-06-17 06:51:00,
2013-06-16 23:56:00,80.4,28.6,29.88,NW,305,2.0,7.6,15,0.00,,,-99.99,FreeWX-Wi 1.02,2013-06-17 06:56:00,